sensor_id;sensor_type;location;lat;lon;timestamp;temperature;humidity
56542;DHT22;42438;53.174;6.730;2024-02-14T00:00:29;6.50;91.10
56542;DHT22;42438;53.174;6.730;2024-02-14T00:02:59;6.70;99.90
56542;DHT22;42438;53.174;6.730;2024-02-14T00:05:30;6.80;99.90
56542;DHT22;42438;53.174;6.730;2024-02-14T00:08:00;6.50;99.90
56542;DHT22;42438;53.174;6.730;2024-02-14T00:10:31;6.90;99.90
56542;DHT22;42438;53.174;6.730;2024-02-14T00:13:02;6.80;99.90
56542;DHT22;42438;53.174;6.730;2024-02-14T00:15:33;6.50;99.90
56542;DHT22;42438;53.174;6.730;2024-02-14T00:18:04;6.80;99.90
56542;DHT22;42438;53.174;6.730;2024-02-14T00:20:34;6.90;99.90
56542;DHT22;42438;53.174;6.730;2024-02-14T00:23:06;6.80;99.90
56542;DHT22;42438;53.174;6.730;2024-02-14T00:25:37;7.70;1.00
56542;DHT22;42438;53.174;6.730;2024-02-14T00:28:07;6.60;1.00
56542;DHT22;42438;53.174;6.730;2024-02-14T00:30:38;6.60;1.00
56542;DHT22;42438;53.174;6.730;2024-02-14T00:33:09;6.60;1.00
56542;DHT22;42438;53.174;6.730;2024-02-14T00:35:39;6.90;1.00
56542;DHT22;42438;53.174;6.730;2024-02-14T00:38:10;6.90;1.00
56542;DHT22;42438;53.174;6.730;2024-02-14T00:40:40;6.60;1.00
56542;DHT22;42438;53.174;6.730;2024-02-14T00:43:11;6.60;1.00
56542;DHT22;42438;53.174;6.730;2024-02-14T00:45:42;6.60;1.00
56542;DHT22;42438;53.174;6.730;2024-02-14T00:48:12;6.70;1.00
56542;DHT22;42438;53.174;6.730;2024-02-14T00:50:43;6.90;1.00
56542;DHT22;42438;53.174;6.730;2024-02-14T00:53:14;6.70;1.00
56542;DHT22;42438;53.174;6.730;2024-02-14T00:55:44;6.60;11.90
56542;DHT22;42438;53.174;6.730;2024-02-14T00:58:15;6.70;18.10
56542;DHT22;42438;53.174;6.730;2024-02-14T01:00:46;6.90;27.30
56542;DHT22;42438;53.174;6.730;2024-02-14T01:03:16;6.90;45.70
56542;DHT22;42438;53.174;6.730;2024-02-14T01:05:47;6.90;67.60
56542;DHT22;42438;53.174;6.730;2024-02-14T01:08:18;6.90;75.70
56542;DHT22;42438;53.174;6.730;2024-02-14T01:10:49;6.90;94.20
56542;DHT22;42438;53.174;6.730;2024-02-14T01:13:22;6.80;99.90
56542;DHT22;42438;53.174;6.730;2024-02-14T01:15:52;6.80;99.90
56542;DHT22;42438;53.174;6.730;2024-02-14T01:18:23;7.00;99.90
56542;DHT22;42438;53.174;6.730;2024-02-14T01:20:54;6.70;99.90
56542;DHT22;42438;53.174;6.730;2024-02-14T01:23:25;7.00;99.90
56542;DHT22;42438;53.174;6.730;2024-02-14T01:25:56;6.80;99.90
56542;DHT22;42438;53.174;6.730;2024-02-14T01:28:26;6.90;99.90
56542;DHT22;42438;53.174;6.730;2024-02-14T01:30:57;7.10;99.90
56542;DHT22;42438;53.174;6.730;2024-02-14T01:33:27;6.80;99.90
56542;DHT22;42438;53.174;6.730;2024-02-14T01:36:01;6.90;99.90
56542;DHT22;42438;53.174;6.730;2024-02-14T01:38:31;7.10;99.90
56542;DHT22;42438;53.174;6.730;2024-02-14T01:41:06;7.10;99.90
56542;DHT22;42438;53.174;6.730;2024-02-14T01:43:36;7.10;99.90
56542;DHT22;42438;53.174;6.730;2024-02-14T01:46:08;6.90;99.90
56542;DHT22;42438;53.174;6.730;2024-02-14T01:48:40;6.90;99.90
56542;DHT22;42438;53.174;6.730;2024-02-14T01:51:13;6.90;99.90
56542;DHT22;42438;53.174;6.730;2024-02-14T01:53:48;6.90;99.90
56542;DHT22;42438;53.174;6.730;2024-02-14T01:56:18;7.20;99.90
56542;DHT22;42438;53.174;6.730;2024-02-14T01:58:49;7.20;99.90
56542;DHT22;42438;53.174;6.730;2024-02-14T02:01:21;7.30;99.90
56542;DHT22;42438;53.174;6.730;2024-02-14T02:03:54;7.20;99.90
56542;DHT22;42438;53.174;6.730;2024-02-14T02:06:25;7.20;99.90
56542;DHT22;42438;53.174;6.730;2024-02-14T02:08:56;7.10;99.90
56542;DHT22;42438;53.174;6.730;2024-02-14T02:11:27;7.00;99.90
56542;DHT22;42438;53.174;6.730;2024-02-14T02:13:58;7.10;99.90
56542;DHT22;42438;53.174;6.730;2024-02-14T02:16:29;7.00;99.90
56542;DHT22;42438;53.174;6.730;2024-02-14T02:18:59;7.10;99.90
56542;DHT22;42438;53.174;6.730;2024-02-14T02:21:30;7.30;99.90
56542;DHT22;42438;53.174;6.730;2024-02-14T02:24:01;7.30;99.90
56542;DHT22;42438;53.174;6.730;2024-02-14T02:26:32;7.10;99.90
56542;DHT22;42438;53.174;6.730;2024-02-14T02:29:02;7.20;99.90
56542;DHT22;42438;53.174;6.730;2024-02-14T02:31:33;7.30;99.90
56542;DHT22;42438;53.174;6.730;2024-02-14T02:34:04;7.20;99.90
56542;DHT22;42438;53.174;6.730;2024-02-14T02:36:34;7.20;99.90
56542;DHT22;42438;53.174;6.730;2024-02-14T02:39:06;7.20;99.90
56542;DHT22;42438;53.174;6.730;2024-02-14T02:41:38;7.20;99.90
56542;DHT22;42438;53.174;6.730;2024-02-14T02:44:08;7.40;99.90
56542;DHT22;42438;53.174;6.730;2024-02-14T02:46:39;7.30;99.90
56542;DHT22;42438;53.174;6.730;2024-02-14T02:49:09;7.40;99.90
56542;DHT22;42438;53.174;6.730;2024-02-14T02:51:40;7.50;99.90
56542;DHT22;42438;53.174;6.730;2024-02-14T02:54:11;7.50;99.90
56542;DHT22;42438;53.174;6.730;2024-02-14T02:56:42;7.30;99.90
56542;DHT22;42438;53.174;6.730;2024-02-14T02:59:13;7.30;99.90
56542;DHT22;42438;53.174;6.730;2024-02-14T03:01:44;7.50;99.90
56542;DHT22;42438;53.174;6.730;2024-02-14T03:04:15;7.30;99.90
56542;DHT22;42438;53.174;6.730;2024-02-14T03:06:46;7.40;99.90
56542;DHT22;42438;53.174;6.730;2024-02-14T03:09:16;7.50;99.90
56542;DHT22;42438;53.174;6.730;2024-02-14T03:11:48;7.50;99.90
56542;DHT22;42438;53.174;6.730;2024-02-14T03:14:19;7.70;99.90
56542;DHT22;42438;53.174;6.730;2024-02-14T03:16:50;7.70;99.90
56542;DHT22;42438;53.174;6.730;2024-02-14T03:19:22;7.50;99.90
56542;DHT22;42438;53.174;6.730;2024-02-14T03:21:56;7.50;99.90
56542;DHT22;42438;53.174;6.730;2024-02-14T03:24:26;7.70;99.90
56542;DHT22;42438;53.174;6.730;2024-02-14T03:26:57;7.80;99.90
56542;DHT22;42438;53.174;6.730;2024-02-14T03:29:28;7.60;99.90
56542;DHT22;42438;53.174;6.730;2024-02-14T03:31:59;7.70;99.90
56542;DHT22;42438;53.174;6.730;2024-02-14T03:34:34;7.60;99.90
56542;DHT22;42438;53.174;6.730;2024-02-14T03:37:06;7.60;99.90
56542;DHT22;42438;53.174;6.730;2024-02-14T03:39:37;7.90;99.90
56542;DHT22;42438;53.174;6.730;2024-02-14T03:42:08;7.90;99.90
56542;DHT22;42438;53.174;6.730;2024-02-14T03:44:38;7.90;99.90
56542;DHT22;42438;53.174;6.730;2024-02-14T03:47:09;7.90;99.90
56542;DHT22;42438;53.174;6.730;2024-02-14T03:49:41;7.80;99.90
56542;DHT22;42438;53.174;6.730;2024-02-14T03:52:12;7.80;99.90
56542;DHT22;42438;53.174;6.730;2024-02-14T03:54:42;7.80;99.90
56542;DHT22;42438;53.174;6.730;2024-02-14T03:57:14;7.90;99.90
56542;DHT22;42438;53.174;6.730;2024-02-14T03:59:45;8.10;99.90
56542;DHT22;42438;53.174;6.730;2024-02-14T04:02:16;8.00;99.90
56542;DHT22;42438;53.174;6.730;2024-02-14T04:04:47;8.10;99.90
56542;DHT22;42438;53.174;6.730;2024-02-14T04:07:18;8.20;99.90
56542;DHT22;42438;53.174;6.730;2024-02-14T04:09:48;8.20;99.90
56542;DHT22;42438;53.174;6.730;2024-02-14T04:12:19;8.00;99.90
56542;DHT22;42438;53.174;6.730;2024-02-14T04:14:50;8.30;99.90
56542;DHT22;42438;53.174;6.730;2024-02-14T04:17:20;8.30;99.90
56542;DHT22;42438;53.174;6.730;2024-02-14T04:19:51;8.20;99.90
56542;DHT22;42438;53.174;6.730;2024-02-14T04:22:22;8.40;99.90
56542;DHT22;42438;53.174;6.730;2024-02-14T04:24:52;8.40;99.90
56542;DHT22;42438;53.174;6.730;2024-02-14T04:27:23;8.40;99.90
56542;DHT22;42438;53.174;6.730;2024-02-14T04:29:53;8.40;99.90
56542;DHT22;42438;53.174;6.730;2024-02-14T04:32:25;8.30;99.90
56542;DHT22;42438;53.174;6.730;2024-02-14T04:34:55;8.50;99.90
56542;DHT22;42438;53.174;6.730;2024-02-14T04:37:26;8.40;99.90
56542;DHT22;42438;53.174;6.730;2024-02-14T04:39:57;8.60;99.90
56542;DHT22;42438;53.174;6.730;2024-02-14T04:42:28;8.50;99.90
56542;DHT22;42438;53.174;6.730;2024-02-14T04:44:58;8.60;99.90
56542;DHT22;42438;53.174;6.730;2024-02-14T04:47:29;8.70;99.90
56542;DHT22;42438;53.174;6.730;2024-02-14T04:50:00;8.70;99.90
56542;DHT22;42438;53.174;6.730;2024-02-14T04:52:34;8.70;99.90
56542;DHT22;42438;53.174;6.730;2024-02-14T04:55:05;8.70;99.90
56542;DHT22;42438;53.174;6.730;2024-02-14T04:57:36;8.70;99.90
56542;DHT22;42438;53.174;6.730;2024-02-14T05:00:07;8.70;99.90
56542;DHT22;42438;53.174;6.730;2024-02-14T05:02:39;8.70;99.90
56542;DHT22;42438;53.174;6.730;2024-02-14T05:05:11;8.70;99.90
56542;DHT22;42438;53.174;6.730;2024-02-14T05:07:42;8.80;99.90
56542;DHT22;42438;53.174;6.730;2024-02-14T05:10:13;8.90;99.90
56542;DHT22;42438;53.174;6.730;2024-02-14T05:12:44;8.80;99.90
56542;DHT22;42438;53.174;6.730;2024-02-14T05:15:15;8.80;99.90
56542;DHT22;42438;53.174;6.730;2024-02-14T05:17:46;9.00;99.90
56542;DHT22;42438;53.174;6.730;2024-02-14T05:20:17;9.00;99.90
56542;DHT22;42438;53.174;6.730;2024-02-14T05:22:48;8.90;99.90
56542;DHT22;42438;53.174;6.730;2024-02-14T05:25:18;9.00;99.90
56542;DHT22;42438;53.174;6.730;2024-02-14T05:27:49;8.90;99.90
56542;DHT22;42438;53.174;6.730;2024-02-14T05:30:20;9.00;99.90
56542;DHT22;42438;53.174;6.730;2024-02-14T05:32:50;9.20;99.90
56542;DHT22;42438;53.174;6.730;2024-02-14T05:35:22;9.20;99.90
56542;DHT22;42438;53.174;6.730;2024-02-14T05:37:54;9.00;99.90
56542;DHT22;42438;53.174;6.730;2024-02-14T05:40:24;9.20;99.90
56542;DHT22;42438;53.174;6.730;2024-02-14T05:42:56;9.20;99.90
56542;DHT22;42438;53.174;6.730;2024-02-14T05:45:26;9.20;99.90
56542;DHT22;42438;53.174;6.730;2024-02-14T05:47:58;9.30;99.90
56542;DHT22;42438;53.174;6.730;2024-02-14T05:50:29;9.20;99.90
56542;DHT22;42438;53.174;6.730;2024-02-14T05:53:00;9.20;99.90
56542;DHT22;42438;53.174;6.730;2024-02-14T05:55:30;9.30;99.90
56542;DHT22;42438;53.174;6.730;2024-02-14T05:58:01;9.10;99.90
56542;DHT22;42438;53.174;6.730;2024-02-14T06:00:32;9.10;99.90
56542;DHT22;42438;53.174;6.730;2024-02-14T06:03:02;9.30;99.90
56542;DHT22;42438;53.174;6.730;2024-02-14T06:05:35;9.20;99.90
56542;DHT22;42438;53.174;6.730;2024-02-14T06:08:06;9.50;99.90
56542;DHT22;42438;53.174;6.730;2024-02-14T06:10:37;9.30;99.90
56542;DHT22;42438;53.174;6.730;2024-02-14T06:13:09;9.40;99.90
56542;DHT22;42438;53.174;6.730;2024-02-14T06:15:39;9.40;99.90
56542;DHT22;42438;53.174;6.730;2024-02-14T06:18:11;9.50;99.90
56542;DHT22;42438;53.174;6.730;2024-02-14T06:20:41;9.50;99.90
56542;DHT22;42438;53.174;6.730;2024-02-14T06:23:13;9.40;99.90
56542;DHT22;42438;53.174;6.730;2024-02-14T06:25:43;9.40;99.90
56542;DHT22;42438;53.174;6.730;2024-02-14T06:28:14;9.40;99.90
56542;DHT22;42438;53.174;6.730;2024-02-14T06:30:44;9.50;99.90
56542;DHT22;42438;53.174;6.730;2024-02-14T06:33:15;9.50;99.90
56542;DHT22;42438;53.174;6.730;2024-02-14T06:35:46;9.50;99.90
56542;DHT22;42438;53.174;6.730;2024-02-14T06:38:16;9.50;99.90
56542;DHT22;42438;53.174;6.730;2024-02-14T06:40:47;9.50;99.90
56542;DHT22;42438;53.174;6.730;2024-02-14T06:43:19;9.50;99.90
56542;DHT22;42438;53.174;6.730;2024-02-14T06:45:50;9.50;99.90
56542;DHT22;42438;53.174;6.730;2024-02-14T06:48:20;9.50;99.90
56542;DHT22;42438;53.174;6.730;2024-02-14T06:50:54;9.70;99.90
56542;DHT22;42438;53.174;6.730;2024-02-14T06:53:24;9.70;99.90
56542;DHT22;42438;53.174;6.730;2024-02-14T06:55:55;9.70;99.90
56542;DHT22;42438;53.174;6.730;2024-02-14T06:58:26;9.70;99.90
56542;DHT22;42438;53.174;6.730;2024-02-14T07:00:56;9.60;99.90
56542;DHT22;42438;53.174;6.730;2024-02-14T07:03:27;9.70;99.90
56542;DHT22;42438;53.174;6.730;2024-02-14T07:05:58;9.80;99.90
56542;DHT22;42438;53.174;6.730;2024-02-14T07:08:28;9.80;99.90
56542;DHT22;42438;53.174;6.730;2024-02-14T07:10:59;9.90;99.90
56542;DHT22;42438;53.174;6.730;2024-02-14T07:13:30;9.70;99.90
56542;DHT22;42438;53.174;6.730;2024-02-14T07:16:00;9.80;99.90
56542;DHT22;42438;53.174;6.730;2024-02-14T07:18:31;9.80;99.90
56542;DHT22;42438;53.174;6.730;2024-02-14T07:21:02;9.90;99.90
56542;DHT22;42438;53.174;6.730;2024-02-14T07:23:36;9.70;99.90
56542;DHT22;42438;53.174;6.730;2024-02-14T07:26:06;9.80;99.90
56542;DHT22;42438;53.174;6.730;2024-02-14T07:28:37;9.90;99.90
56542;DHT22;42438;53.174;6.730;2024-02-14T07:31:08;9.90;99.90
56542;DHT22;42438;53.174;6.730;2024-02-14T07:33:38;9.80;99.90
56542;DHT22;42438;53.174;6.730;2024-02-14T07:36:09;10.00;99.90
56542;DHT22;42438;53.174;6.730;2024-02-14T07:38:40;9.90;99.90
56542;DHT22;42438;53.174;6.730;2024-02-14T07:41:13;9.80;99.90
56542;DHT22;42438;53.174;6.730;2024-02-14T07:43:43;10.00;99.90
56542;DHT22;42438;53.174;6.730;2024-02-14T07:46:20;10.10;99.90
56542;DHT22;42438;53.174;6.730;2024-02-14T07:48:52;9.80;99.90
56542;DHT22;42438;53.174;6.730;2024-02-14T07:51:23;10.00;99.90
56542;DHT22;42438;53.174;6.730;2024-02-14T07:53:54;9.90;99.90
56542;DHT22;42438;53.174;6.730;2024-02-14T07:56:24;9.90;99.90
56542;DHT22;42438;53.174;6.730;2024-02-14T07:58:55;10.00;99.90
56542;DHT22;42438;53.174;6.730;2024-02-14T08:01:26;10.00;99.90
56542;DHT22;42438;53.174;6.730;2024-02-14T08:03:56;10.10;99.90
56542;DHT22;42438;53.174;6.730;2024-02-14T08:06:27;10.20;99.90
56542;DHT22;42438;53.174;6.730;2024-02-14T08:08:58;10.10;99.90
56542;DHT22;42438;53.174;6.730;2024-02-14T08:11:32;10.20;99.90
56542;DHT22;42438;53.174;6.730;2024-02-14T08:14:03;10.10;99.90
56542;DHT22;42438;53.174;6.730;2024-02-14T08:16:33;10.30;99.90
56542;DHT22;42438;53.174;6.730;2024-02-14T08:19:04;10.10;99.90
56542;DHT22;42438;53.174;6.730;2024-02-14T08:21:35;10.10;99.90
56542;DHT22;42438;53.174;6.730;2024-02-14T08:24:06;10.30;99.90
56542;DHT22;42438;53.174;6.730;2024-02-14T08:26:37;10.30;99.90
56542;DHT22;42438;53.174;6.730;2024-02-14T08:29:08;10.20;99.90
56542;DHT22;42438;53.174;6.730;2024-02-14T08:31:40;10.20;99.90
56542;DHT22;42438;53.174;6.730;2024-02-14T08:34:11;10.40;99.90
56542;DHT22;42438;53.174;6.730;2024-02-14T08:36:42;10.30;99.90
56542;DHT22;42438;53.174;6.730;2024-02-14T08:39:12;10.30;99.90
56542;DHT22;42438;53.174;6.730;2024-02-14T08:41:44;10.30;99.90
56542;DHT22;42438;53.174;6.730;2024-02-14T08:44:15;10.40;99.90
56542;DHT22;42438;53.174;6.730;2024-02-14T08:46:46;10.30;99.90
56542;DHT22;42438;53.174;6.730;2024-02-14T08:49:18;10.40;99.90
56542;DHT22;42438;53.174;6.730;2024-02-14T08:51:49;10.40;99.90
56542;DHT22;42438;53.174;6.730;2024-02-14T08:54:20;10.50;99.90
56542;DHT22;42438;53.174;6.730;2024-02-14T08:56:51;10.50;99.90
56542;DHT22;42438;53.174;6.730;2024-02-14T08:59:25;10.50;99.90
56542;DHT22;42438;53.174;6.730;2024-02-14T09:01:56;10.50;99.90
56542;DHT22;42438;53.174;6.730;2024-02-14T09:04:27;10.40;99.90
56542;DHT22;42438;53.174;6.730;2024-02-14T09:06:58;10.80;99.90
56542;DHT22;42438;53.174;6.730;2024-02-14T09:09:29;10.70;99.90
56542;DHT22;42438;53.174;6.730;2024-02-14T09:11:59;10.60;99.90
56542;DHT22;42438;53.174;6.730;2024-02-14T09:14:33;10.70;99.90
56542;DHT22;42438;53.174;6.730;2024-02-14T09:17:04;11.00;99.90
56542;DHT22;42438;53.174;6.730;2024-02-14T09:19:34;10.80;99.90
56542;DHT22;42438;53.174;6.730;2024-02-14T09:22:05;10.80;99.90
56542;DHT22;42438;53.174;6.730;2024-02-14T09:24:36;10.90;99.90
56542;DHT22;42438;53.174;6.730;2024-02-14T09:27:07;10.70;99.90
56542;DHT22;42438;53.174;6.730;2024-02-14T09:29:38;10.80;99.90
56542;DHT22;42438;53.174;6.730;2024-02-14T09:32:08;10.70;99.90
56542;DHT22;42438;53.174;6.730;2024-02-14T09:34:39;10.80;99.90
56542;DHT22;42438;53.174;6.730;2024-02-14T09:37:10;10.80;99.90
56542;DHT22;42438;53.174;6.730;2024-02-14T09:39:41;10.80;99.90
56542;DHT22;42438;53.174;6.730;2024-02-14T09:42:16;10.60;99.90
56542;DHT22;42438;53.174;6.730;2024-02-14T09:44:47;10.70;99.90
56542;DHT22;42438;53.174;6.730;2024-02-14T09:47:21;10.90;99.90
56542;DHT22;42438;53.174;6.730;2024-02-14T09:49:53;10.80;99.90
56542;DHT22;42438;53.174;6.730;2024-02-14T09:52:23;10.80;99.90
56542;DHT22;42438;53.174;6.730;2024-02-14T09:54:55;10.80;99.90
56542;DHT22;42438;53.174;6.730;2024-02-14T09:57:26;11.10;99.90
56542;DHT22;42438;53.174;6.730;2024-02-14T10:00:00;11.00;99.90
56542;DHT22;42438;53.174;6.730;2024-02-14T10:02:35;10.80;99.90
56542;DHT22;42438;53.174;6.730;2024-02-14T10:05:07;11.10;99.90
56542;DHT22;42438;53.174;6.730;2024-02-14T10:07:41;11.10;99.90
56542;DHT22;42438;53.174;6.730;2024-02-14T10:10:13;11.00;99.90
56542;DHT22;42438;53.174;6.730;2024-02-14T10:12:44;11.10;99.90
56542;DHT22;42438;53.174;6.730;2024-02-14T10:15:15;11.10;99.90
56542;DHT22;42438;53.174;6.730;2024-02-14T10:17:46;11.00;99.90
56542;DHT22;42438;53.174;6.730;2024-02-14T10:20:17;10.90;99.90
56542;DHT22;42438;53.174;6.730;2024-02-14T10:22:48;11.00;99.90
56542;DHT22;42438;53.174;6.730;2024-02-14T10:25:18;11.20;99.90
56542;DHT22;42438;53.174;6.730;2024-02-14T10:27:49;11.20;99.90
56542;DHT22;42438;53.174;6.730;2024-02-14T10:30:20;11.20;99.90
56542;DHT22;42438;53.174;6.730;2024-02-14T10:32:52;11.00;99.90
56542;DHT22;42438;53.174;6.730;2024-02-14T10:35:22;11.20;99.90
56542;DHT22;42438;53.174;6.730;2024-02-14T10:37:53;11.20;99.90
56542;DHT22;42438;53.174;6.730;2024-02-14T10:40:32;11.20;99.90
56542;DHT22;42438;53.174;6.730;2024-02-14T10:43:06;11.10;99.90
56542;DHT22;42438;53.174;6.730;2024-02-14T10:45:37;11.30;99.90
56542;DHT22;42438;53.174;6.730;2024-02-14T10:48:11;11.30;99.90
56542;DHT22;42438;53.174;6.730;2024-02-14T10:50:43;11.30;99.90
56542;DHT22;42438;53.174;6.730;2024-02-14T10:53:15;11.20;99.90
56542;DHT22;42438;53.174;6.730;2024-02-14T10:55:49;11.40;99.90
56542;DHT22;42438;53.174;6.730;2024-02-14T10:58:20;11.40;99.90
56542;DHT22;42438;53.174;6.730;2024-02-14T11:00:52;11.40;99.90
56542;DHT22;42438;53.174;6.730;2024-02-14T11:03:23;11.20;99.90
56542;DHT22;42438;53.174;6.730;2024-02-14T11:05:54;11.20;99.90
56542;DHT22;42438;53.174;6.730;2024-02-14T11:08:31;11.20;99.90
56542;DHT22;42438;53.174;6.730;2024-02-14T11:11:03;11.40;99.90
56542;DHT22;42438;53.174;6.730;2024-02-14T11:13:35;11.40;99.90
56542;DHT22;42438;53.174;6.730;2024-02-14T11:16:09;11.30;99.90
56542;DHT22;42438;53.174;6.730;2024-02-14T11:18:40;11.30;99.90
56542;DHT22;42438;53.174;6.730;2024-02-14T11:21:17;11.40;99.90
56542;DHT22;42438;53.174;6.730;2024-02-14T11:23:53;11.50;99.90
56542;DHT22;42438;53.174;6.730;2024-02-14T11:26:47;11.30;99.90
56542;DHT22;42438;53.174;6.730;2024-02-14T11:29:18;11.50;99.90
56542;DHT22;42438;53.174;6.730;2024-02-14T11:31:57;11.40;99.90
56542;DHT22;42438;53.174;6.730;2024-02-14T11:34:29;11.40;99.90
56542;DHT22;42438;53.174;6.730;2024-02-14T11:37:03;11.50;99.90
56542;DHT22;42438;53.174;6.730;2024-02-14T11:39:35;11.50;99.90
56542;DHT22;42438;53.174;6.730;2024-02-14T11:42:07;11.40;99.90
56542;DHT22;42438;53.174;6.730;2024-02-14T11:44:40;11.70;99.90
56542;DHT22;42438;53.174;6.730;2024-02-14T11:47:13;11.60;99.90
56542;DHT22;42438;53.174;6.730;2024-02-14T11:49:44;11.60;99.90
56542;DHT22;42438;53.174;6.730;2024-02-14T11:52:15;11.60;99.90
56542;DHT22;42438;53.174;6.730;2024-02-14T11:54:46;11.70;99.90
56542;DHT22;42438;53.174;6.730;2024-02-14T11:57:19;11.70;99.90
56542;DHT22;42438;53.174;6.730;2024-02-14T11:59:50;11.70;99.90
56542;DHT22;42438;53.174;6.730;2024-02-14T12:02:23;11.80;99.90
56542;DHT22;42438;53.174;6.730;2024-02-14T12:04:54;11.70;99.90
56542;DHT22;42438;53.174;6.730;2024-02-14T12:07:26;12.00;99.90
56542;DHT22;42438;53.174;6.730;2024-02-14T12:09:57;11.80;99.90
56542;DHT22;42438;53.174;6.730;2024-02-14T12:12:28;11.80;99.90
56542;DHT22;42438;53.174;6.730;2024-02-14T12:15:01;12.00;99.90
56542;DHT22;42438;53.174;6.730;2024-02-14T12:17:33;11.80;99.90
56542;DHT22;42438;53.174;6.730;2024-02-14T12:20:07;11.90;99.90
56542;DHT22;42438;53.174;6.730;2024-02-14T12:22:40;11.90;99.90
56542;DHT22;42438;53.174;6.730;2024-02-14T12:25:11;11.90;99.90
56542;DHT22;42438;53.174;6.730;2024-02-14T12:27:42;12.00;99.90
56542;DHT22;42438;53.174;6.730;2024-02-14T12:30:12;12.00;99.90
56542;DHT22;42438;53.174;6.730;2024-02-14T12:32:43;11.90;99.90
56542;DHT22;42438;53.174;6.730;2024-02-14T12:35:14;12.10;99.90
56542;DHT22;42438;53.174;6.730;2024-02-14T12:37:44;11.90;99.90
56542;DHT22;42438;53.174;6.730;2024-02-14T12:40:15;11.90;99.90
56542;DHT22;42438;53.174;6.730;2024-02-14T12:42:47;12.10;99.90
56542;DHT22;42438;53.174;6.730;2024-02-14T12:45:17;12.00;99.90
56542;DHT22;42438;53.174;6.730;2024-02-14T12:47:49;12.00;99.90
56542;DHT22;42438;53.174;6.730;2024-02-14T12:50:19;11.90;99.90
56542;DHT22;42438;53.174;6.730;2024-02-14T12:52:50;11.80;99.90
56542;DHT22;42438;53.174;6.730;2024-02-14T12:55:21;12.00;99.90
56542;DHT22;42438;53.174;6.730;2024-02-14T12:57:56;11.90;99.90
56542;DHT22;42438;53.174;6.730;2024-02-14T13:00:27;11.90;99.90
56542;DHT22;42438;53.174;6.730;2024-02-14T13:02:59;12.00;99.90
56542;DHT22;42438;53.174;6.730;2024-02-14T13:05:31;12.00;99.90
56542;DHT22;42438;53.174;6.730;2024-02-14T13:08:02;12.10;99.90
56542;DHT22;42438;53.174;6.730;2024-02-14T13:10:34;12.00;99.90
56542;DHT22;42438;53.174;6.730;2024-02-14T13:13:04;11.90;99.90
56542;DHT22;42438;53.174;6.730;2024-02-14T13:15:36;12.00;99.90
56542;DHT22;42438;53.174;6.730;2024-02-14T13:18:07;11.90;99.90
56542;DHT22;42438;53.174;6.730;2024-02-14T13:20:38;11.90;99.90
56542;DHT22;42438;53.174;6.730;2024-02-14T13:23:09;11.80;99.90
56542;DHT22;42438;53.174;6.730;2024-02-14T13:25:40;11.90;99.90
56542;DHT22;42438;53.174;6.730;2024-02-14T13:28:11;11.70;99.90
56542;DHT22;42438;53.174;6.730;2024-02-14T13:30:42;11.80;99.90
56542;DHT22;42438;53.174;6.730;2024-02-14T13:33:13;11.90;99.90
56542;DHT22;42438;53.174;6.730;2024-02-14T13:35:44;11.70;99.90
56542;DHT22;42438;53.174;6.730;2024-02-14T13:38:15;11.90;99.90
56542;DHT22;42438;53.174;6.730;2024-02-14T13:40:46;11.90;99.90
56542;DHT22;42438;53.174;6.730;2024-02-14T13:43:17;11.80;99.90
56542;DHT22;42438;53.174;6.730;2024-02-14T13:45:48;11.90;99.90
56542;DHT22;42438;53.174;6.730;2024-02-14T13:48:20;11.90;99.90
56542;DHT22;42438;53.174;6.730;2024-02-14T13:50:51;11.70;99.90
56542;DHT22;42438;53.174;6.730;2024-02-14T13:53:22;11.70;99.90
56542;DHT22;42438;53.174;6.730;2024-02-14T13:55:53;11.90;99.90
56542;DHT22;42438;53.174;6.730;2024-02-14T13:58:24;11.70;99.90
56542;DHT22;42438;53.174;6.730;2024-02-14T14:00:54;11.70;99.90
56542;DHT22;42438;53.174;6.730;2024-02-14T14:03:25;11.60;99.90
56542;DHT22;42438;53.174;6.730;2024-02-14T14:05:57;11.70;99.90
56542;DHT22;42438;53.174;6.730;2024-02-14T14:08:28;11.80;99.90
56542;DHT22;42438;53.174;6.730;2024-02-14T14:10:58;11.90;99.90
56542;DHT22;42438;53.174;6.730;2024-02-14T14:13:29;11.70;99.90
56542;DHT22;42438;53.174;6.730;2024-02-14T14:16:03;11.80;99.90
56542;DHT22;42438;53.174;6.730;2024-02-14T14:18:35;11.90;99.90
56542;DHT22;42438;53.174;6.730;2024-02-14T14:21:06;11.80;99.90
56542;DHT22;42438;53.174;6.730;2024-02-14T14:23:37;11.80;99.90
56542;DHT22;42438;53.174;6.730;2024-02-14T14:26:07;11.90;99.90
56542;DHT22;42438;53.174;6.730;2024-02-14T14:28:38;11.80;99.90
56542;DHT22;42438;53.174;6.730;2024-02-14T14:31:09;11.80;99.90
56542;DHT22;42438;53.174;6.730;2024-02-14T14:33:43;12.00;99.90
56542;DHT22;42438;53.174;6.730;2024-02-14T14:36:13;11.90;99.90
56542;DHT22;42438;53.174;6.730;2024-02-14T14:38:44;11.90;99.90
56542;DHT22;42438;53.174;6.730;2024-02-14T14:41:14;11.90;99.90
56542;DHT22;42438;53.174;6.730;2024-02-14T14:43:45;11.80;99.90
56542;DHT22;42438;53.174;6.730;2024-02-14T14:46:19;11.90;99.90
56542;DHT22;42438;53.174;6.730;2024-02-14T14:48:50;12.10;99.90
56542;DHT22;42438;53.174;6.730;2024-02-14T14:51:20;12.00;99.90
56542;DHT22;42438;53.174;6.730;2024-02-14T14:53:51;11.90;99.90
56542;DHT22;42438;53.174;6.730;2024-02-14T14:56:22;11.90;99.90
56542;DHT22;42438;53.174;6.730;2024-02-14T14:58:55;12.00;99.90
56542;DHT22;42438;53.174;6.730;2024-02-14T15:01:33;12.00;99.90
56542;DHT22;42438;53.174;6.730;2024-02-14T15:04:06;11.80;99.90
56542;DHT22;42438;53.174;6.730;2024-02-14T15:06:37;12.00;99.90
56542;DHT22;42438;53.174;6.730;2024-02-14T15:09:08;11.80;99.90
56542;DHT22;42438;53.174;6.730;2024-02-14T15:11:39;12.00;99.90
56542;DHT22;42438;53.174;6.730;2024-02-14T15:14:09;12.00;99.90
56542;DHT22;42438;53.174;6.730;2024-02-14T15:16:40;11.90;99.90
56542;DHT22;42438;53.174;6.730;2024-02-14T15:19:12;11.90;99.90
56542;DHT22;42438;53.174;6.730;2024-02-14T15:21:42;12.00;99.90
56542;DHT22;42438;53.174;6.730;2024-02-14T15:24:13;11.80;99.90
56542;DHT22;42438;53.174;6.730;2024-02-14T15:26:43;11.90;99.90
56542;DHT22;42438;53.174;6.730;2024-02-14T15:29:22;11.80;99.90
56542;DHT22;42438;53.174;6.730;2024-02-14T15:32:12;11.90;99.90
56542;DHT22;42438;53.174;6.730;2024-02-14T15:35:01;12.00;99.90
56542;DHT22;42438;53.174;6.730;2024-02-14T15:37:34;11.90;99.90
56542;DHT22;42438;53.174;6.730;2024-02-14T15:40:05;11.70;99.90
56542;DHT22;42438;53.174;6.730;2024-02-14T15:42:36;11.80;99.90
56542;DHT22;42438;53.174;6.730;2024-02-14T15:45:07;11.90;99.90
56542;DHT22;42438;53.174;6.730;2024-02-14T15:47:38;11.80;99.90
56542;DHT22;42438;53.174;6.730;2024-02-14T15:50:09;11.80;99.90
56542;DHT22;42438;53.174;6.730;2024-02-14T15:52:40;11.80;99.90
56542;DHT22;42438;53.174;6.730;2024-02-14T15:55:11;11.70;99.90
56542;DHT22;42438;53.174;6.730;2024-02-14T15:57:41;11.70;99.90
56542;DHT22;42438;53.174;6.730;2024-02-14T16:00:12;11.70;99.90
56542;DHT22;42438;53.174;6.730;2024-02-14T16:02:43;11.90;99.90